Assembly Point, New York
Current Conditions -  °F | °C
As of 11:53 PM on Saturday 20 Dec 2014 (Local Time) from KGFL Reporting Station
Overcast Overcast  
Wind Chill: -5°   Ceiling: 3600
Heat Index: -5°   Visibility: 10mi
Dew Point: -8°   Wind: 0mph
Humidity: 81%   Direction: NA
Pressure: 30.31"   Gusts: NA
Location:  43.4218°N, 73.7084°W
Report Text: KGFL 210453Z AUTO 00000KT 10SM OVC036 M05/M08 A3031 RMK AO2 SLP276 T10501078 410171083
Loading
Personal Weather Stations






























Interactive Weather Map New forecast layout! Learn more

10-Day Weather Forecast

Advertisements
Track Severe Weather on mobile